Aérodrome :
LOGIN :

S'inscrire | Disclaimer

   EN    FR    IT 

 










Légende :    VFR   VFR Marginal   IFR   IFR Intensif   IFR Très Intensif
Visi : 
Plafond : 
>= 8 km
>= 3000ft
5 à 8 km
1000 à 3000 ft
1500m à 5 km
500 à 1000 ft
800 à 1500m
200 à 500 ft
< 800m
< 200 ft
Symboles :   Orages  Brouillard  Fortes neiges  Fortes précipitations  Vent > 20 kt
SIGMETs :   Divers  Orages  Givrage  Turbulence  Onde Orograph.  Cendres Volcan.







- Altitude de l'aérodrome : 312 ft
- Code IATA : SAW


LTFJ - Sabiha Gokcen

DERNIER METAR :
  • 170420Z 05007KT 9999 -SHRA SCT009 BKN030 24/23 Q1010 NOSIG RMK RWY24 07004KT 020V100

METARs EXPIRÉS :
  • 170350Z 05007KT 020V080 9999 FEW011 BKN030 23/22 Q1010 NOSIG RMK RWY24 04005KT 010V070
  • 170320Z 06005KT 030V090 9999 SCT007 BKN030 23/22 Q1010 NOSIG RMK RWY24 05005KT
  • 170250Z 05005KT 9999 SCT008 BKN030 23/22 Q1010 NOSIG RMK RWY24 05005KT
  • 170220Z 03006KT 9999 SCT008 BKN030 23/22 Q1009 NOSIG
  • 170150Z 04005KT 9999 SCT008 BKN030 BKN090 23/22 Q1009 NOSIG RMK RWY24 04003KT

TAF TAF LTFJ
Valide du 17 à 00h jusqu'au 18 à 00h UTC


162240Z 1700/1724 03009KT 9999 SCT035
TEMPO 1700/1703 SCT009 BKN030
PROB40
TEMPO 1703/1707 -TSRA FEW020CB BKN030
Pas de NOTAMs connus pour ce terrain.



MET'MAP, la Météo Aéronautique d'un coup d'oeil ! - Copyright ORBIFLY Décembre 2007 - Disclaimer

ORBIFLY MET'MAP TEAM :

Programmation & Développement : Alexandra Zaïnal
Conception & Développement : Baudouin d'Aumeries
Co-Programmation & Développement : Marc-Olivier Méhu
Soutien technique & logistique : Manuel Goepfert

Contact : metmap@orbifly.com




SOURCES & CREDITS :

   NOAA